sensor_id;sensor_type;location;lat;lon;timestamp;P1;durP1;ratioP1;P2;durP2;ratioP2
17570;SDS011;8903;52.220;20.978;2023-10-19T00:01:54;33.67;;;24.30;;
17570;SDS011;8903;52.220;20.978;2023-10-19T00:04:23;29.03;;;23.00;;
17570;SDS011;8903;52.220;20.978;2023-10-19T00:06:49;34.80;;;22.53;;
17570;SDS011;8903;52.220;20.978;2023-10-19T00:09:16;34.83;;;24.10;;
17570;SDS011;8903;52.220;20.978;2023-10-19T00:11:42;35.00;;;23.10;;
17570;SDS011;8903;52.220;20.978;2023-10-19T00:14:09;36.33;;;24.30;;
17570;SDS011;8903;52.220;20.978;2023-10-19T00:16:43;30.40;;;22.30;;
17570;SDS011;8903;52.220;20.978;2023-10-19T00:19:16;30.13;;;22.57;;
17570;SDS011;8903;52.220;20.978;2023-10-19T00:21:46;36.23;;;24.03;;
17570;SDS011;8903;52.220;20.978;2023-10-19T00:24:20;31.70;;;23.07;;
17570;SDS011;8903;52.220;20.978;2023-10-19T00:26:48;30.50;;;23.10;;
17570;SDS011;8903;52.220;20.978;2023-10-19T00:29:18;35.47;;;24.13;;
17570;SDS011;8903;52.220;20.978;2023-10-19T00:31:59;35.77;;;24.50;;
17570;SDS011;8903;52.220;20.978;2023-10-19T00:34:27;35.70;;;22.83;;
17570;SDS011;8903;52.220;20.978;2023-10-19T00:36:54;41.47;;;24.80;;
17570;SDS011;8903;52.220;20.978;2023-10-19T00:39:22;41.90;;;23.47;;
17570;SDS011;8903;52.220;20.978;2023-10-19T00:41:50;33.03;;;23.77;;
17570;SDS011;8903;52.220;20.978;2023-10-19T00:44:22;35.00;;;23.50;;
17570;SDS011;8903;52.220;20.978;2023-10-19T00:47:02;36.10;;;24.50;;
17570;SDS011;8903;52.220;20.978;2023-10-19T00:49:32;34.73;;;23.90;;
17570;SDS011;8903;52.220;20.978;2023-10-19T00:52:00;38.83;;;25.13;;
17570;SDS011;8903;52.220;20.978;2023-10-19T00:54:36;40.97;;;26.97;;
17570;SDS011;8903;52.220;20.978;2023-10-19T00:57:17;38.07;;;25.87;;
17570;SDS011;8903;52.220;20.978;2023-10-19T00:59:49;38.50;;;27.93;;
17570;SDS011;8903;52.220;20.978;2023-10-19T01:02:20;40.33;;;27.20;;
17570;SDS011;8903;52.220;20.978;2023-10-19T01:04:54;40.10;;;27.90;;
17570;SDS011;8903;52.220;20.978;2023-10-19T01:07:25;38.50;;;26.10;;
17570;SDS011;8903;52.220;20.978;2023-10-19T01:09:54;39.70;;;24.47;;
17570;SDS011;8903;52.220;20.978;2023-10-19T01:12:22;39.50;;;25.47;;
17570;SDS011;8903;52.220;20.978;2023-10-19T01:15:02;42.30;;;28.03;;
17570;SDS011;8903;52.220;20.978;2023-10-19T01:17:35;33.50;;;24.77;;
17570;SDS011;8903;52.220;20.978;2023-10-19T01:20:08;43.10;;;26.60;;
17570;SDS011;8903;52.220;20.978;2023-10-19T01:22:47;36.07;;;24.53;;
17570;SDS011;8903;52.220;20.978;2023-10-19T01:25:46;36.57;;;25.27;;
17570;SDS011;8903;52.220;20.978;2023-10-19T01:28:26;44.43;;;28.37;;
17570;SDS011;8903;52.220;20.978;2023-10-19T01:31:07;43.67;;;26.57;;
17570;SDS011;8903;52.220;20.978;2023-10-19T01:33:39;42.97;;;27.20;;
17570;SDS011;8903;52.220;20.978;2023-10-19T01:36:07;42.90;;;26.90;;
17570;SDS011;8903;52.220;20.978;2023-10-19T01:38:38;52.30;;;28.53;;
17570;SDS011;8903;52.220;20.978;2023-10-19T01:41:06;40.50;;;27.67;;
17570;SDS011;8903;52.220;20.978;2023-10-19T01:43:43;42.07;;;28.03;;
17570;SDS011;8903;52.220;20.978;2023-10-19T01:46:11;43.80;;;28.03;;
17570;SDS011;8903;52.220;20.978;2023-10-19T01:48:47;39.70;;;28.67;;
17570;SDS011;8903;52.220;20.978;2023-10-19T01:51:15;42.07;;;28.53;;
17570;SDS011;8903;52.220;20.978;2023-10-19T01:53:44;38.00;;;28.33;;
17570;SDS011;8903;52.220;20.978;2023-10-19T01:56:10;40.80;;;27.47;;
17570;SDS011;8903;52.220;20.978;2023-10-19T01:58:39;38.23;;;27.83;;
17570;SDS011;8903;52.220;20.978;2023-10-19T02:01:06;41.50;;;28.33;;
17570;SDS011;8903;52.220;20.978;2023-10-19T02:03:40;39.13;;;27.17;;
17570;SDS011;8903;52.220;20.978;2023-10-19T02:06:07;39.63;;;27.30;;
17570;SDS011;8903;52.220;20.978;2023-10-19T02:08:45;44.33;;;28.20;;
17570;SDS011;8903;52.220;20.978;2023-10-19T02:11:14;41.77;;;28.73;;
17570;SDS011;8903;52.220;20.978;2023-10-19T02:13:43;43.27;;;28.77;;
17570;SDS011;8903;52.220;20.978;2023-10-19T02:16:12;41.30;;;27.40;;
17570;SDS011;8903;52.220;20.978;2023-10-19T02:18:41;41.90;;;26.70;;
17570;SDS011;8903;52.220;20.978;2023-10-19T02:21:09;36.93;;;25.43;;
17570;SDS011;8903;52.220;20.978;2023-10-19T02:23:37;39.90;;;27.70;;
17570;SDS011;8903;52.220;20.978;2023-10-19T02:26:08;43.10;;;27.00;;
17570;SDS011;8903;52.220;20.978;2023-10-19T02:28:34;41.20;;;27.83;;
17570;SDS011;8903;52.220;20.978;2023-10-19T02:31:04;37.87;;;27.43;;
17570;SDS011;8903;52.220;20.978;2023-10-19T02:33:39;41.63;;;28.90;;
17570;SDS011;8903;52.220;20.978;2023-10-19T02:36:07;40.20;;;28.03;;
17570;SDS011;8903;52.220;20.978;2023-10-19T02:38:38;44.17;;;28.37;;
17570;SDS011;8903;52.220;20.978;2023-10-19T02:41:10;38.60;;;26.63;;
17570;SDS011;8903;52.220;20.978;2023-10-19T02:43:38;45.33;;;28.97;;
17570;SDS011;8903;52.220;20.978;2023-10-19T02:46:05;42.30;;;28.17;;
17570;SDS011;8903;52.220;20.978;2023-10-19T02:48:33;40.53;;;28.07;;
17570;SDS011;8903;52.220;20.978;2023-10-19T02:51:00;42.23;;;28.93;;
17570;SDS011;8903;52.220;20.978;2023-10-19T02:53:36;41.23;;;28.37;;
17570;SDS011;8903;52.220;20.978;2023-10-19T02:56:11;50.00;;;30.37;;
17570;SDS011;8903;52.220;20.978;2023-10-19T02:58:44;44.33;;;27.33;;
17570;SDS011;8903;52.220;20.978;2023-10-19T03:01:15;40.23;;;27.63;;
17570;SDS011;8903;52.220;20.978;2023-10-19T03:03:48;36.00;;;26.57;;
17570;SDS011;8903;52.220;20.978;2023-10-19T03:06:19;50.17;;;32.57;;
17570;SDS011;8903;52.220;20.978;2023-10-19T03:08:46;43.03;;;29.80;;
17570;SDS011;8903;52.220;20.978;2023-10-19T03:11:14;49.00;;;31.10;;
17570;SDS011;8903;52.220;20.978;2023-10-19T03:13:42;47.70;;;31.80;;
17570;SDS011;8903;52.220;20.978;2023-10-19T03:16:09;51.00;;;32.10;;
17570;SDS011;8903;52.220;20.978;2023-10-19T03:18:36;48.27;;;31.97;;
17570;SDS011;8903;52.220;20.978;2023-10-19T03:21:04;53.53;;;37.40;;
17570;SDS011;8903;52.220;20.978;2023-10-19T03:23:31;57.63;;;38.23;;
17570;SDS011;8903;52.220;20.978;2023-10-19T03:25:59;54.00;;;37.13;;
17570;SDS011;8903;52.220;20.978;2023-10-19T03:28:54;54.80;;;37.17;;
17570;SDS011;8903;52.220;20.978;2023-10-19T03:31:22;59.33;;;36.63;;
17570;SDS011;8903;52.220;20.978;2023-10-19T03:33:49;55.57;;;36.60;;
17570;SDS011;8903;52.220;20.978;2023-10-19T03:36:19;56.27;;;38.70;;
17570;SDS011;8903;52.220;20.978;2023-10-19T03:38:46;54.30;;;35.40;;
17570;SDS011;8903;52.220;20.978;2023-10-19T03:41:15;53.33;;;36.00;;
17570;SDS011;8903;52.220;20.978;2023-10-19T03:43:46;54.00;;;36.47;;
17570;SDS011;8903;52.220;20.978;2023-10-19T03:46:15;58.50;;;35.20;;
17570;SDS011;8903;52.220;20.978;2023-10-19T03:48:48;48.10;;;34.97;;
17570;SDS011;8903;52.220;20.978;2023-10-19T03:51:15;52.33;;;34.70;;
17570;SDS011;8903;52.220;20.978;2023-10-19T03:53:42;53.47;;;34.73;;
17570;SDS011;8903;52.220;20.978;2023-10-19T03:56:14;50.83;;;31.53;;
17570;SDS011;8903;52.220;20.978;2023-10-19T03:58:43;48.67;;;32.10;;
17570;SDS011;8903;52.220;20.978;2023-10-19T04:01:16;50.03;;;33.70;;
17570;SDS011;8903;52.220;20.978;2023-10-19T04:03:45;51.77;;;33.73;;
17570;SDS011;8903;52.220;20.978;2023-10-19T04:06:12;45.07;;;32.97;;
17570;SDS011;8903;52.220;20.978;2023-10-19T04:08:40;46.53;;;31.23;;
17570;SDS011;8903;52.220;20.978;2023-10-19T04:11:10;44.87;;;32.80;;
17570;SDS011;8903;52.220;20.978;2023-10-19T04:13:47;56.90;;;34.30;;
17570;SDS011;8903;52.220;20.978;2023-10-19T04:16:19;55.50;;;34.63;;
17570;SDS011;8903;52.220;20.978;2023-10-19T04:18:46;47.77;;;33.53;;
17570;SDS011;8903;52.220;20.978;2023-10-19T04:21:15;54.17;;;34.37;;
17570;SDS011;8903;52.220;20.978;2023-10-19T04:23:42;46.27;;;33.07;;
17570;SDS011;8903;52.220;20.978;2023-10-19T04:26:11;48.40;;;32.40;;
17570;SDS011;8903;52.220;20.978;2023-10-19T04:28:39;48.17;;;34.33;;
17570;SDS011;8903;52.220;20.978;2023-10-19T04:31:15;58.83;;;35.23;;
17570;SDS011;8903;52.220;20.978;2023-10-19T04:33:45;51.53;;;33.30;;
17570;SDS011;8903;52.220;20.978;2023-10-19T04:36:15;55.67;;;34.77;;
17570;SDS011;8903;52.220;20.978;2023-10-19T04:38:46;51.47;;;36.00;;
17570;SDS011;8903;52.220;20.978;2023-10-19T04:41:13;57.10;;;35.27;;
17570;SDS011;8903;52.220;20.978;2023-10-19T04:43:40;49.97;;;33.93;;
17570;SDS011;8903;52.220;20.978;2023-10-19T04:46:15;44.97;;;31.97;;
17570;SDS011;8903;52.220;20.978;2023-10-19T04:48:45;52.33;;;35.27;;
17570;SDS011;8903;52.220;20.978;2023-10-19T04:51:12;52.67;;;32.93;;
17570;SDS011;8903;52.220;20.978;2023-10-19T04:53:39;44.83;;;31.37;;
17570;SDS011;8903;52.220;20.978;2023-10-19T04:56:07;48.20;;;32.60;;
17570;SDS011;8903;52.220;20.978;2023-10-19T04:58:35;48.40;;;31.13;;
17570;SDS011;8903;52.220;20.978;2023-10-19T05:01:02;52.00;;;31.90;;
17570;SDS011;8903;52.220;20.978;2023-10-19T05:03:30;51.97;;;32.17;;
17570;SDS011;8903;52.220;20.978;2023-10-19T05:05:59;55.03;;;33.30;;
17570;SDS011;8903;52.220;20.978;2023-10-19T05:08:26;48.30;;;30.87;;
17570;SDS011;8903;52.220;20.978;2023-10-19T05:10:53;46.53;;;31.97;;
17570;SDS011;8903;52.220;20.978;2023-10-19T05:13:21;55.33;;;32.77;;
17570;SDS011;8903;52.220;20.978;2023-10-19T05:15:50;47.07;;;31.47;;
17570;SDS011;8903;52.220;20.978;2023-10-19T05:18:18;49.13;;;32.70;;
17570;SDS011;8903;52.220;20.978;2023-10-19T05:20:45;49.77;;;31.20;;
17570;SDS011;8903;52.220;20.978;2023-10-19T05:23:13;49.37;;;31.30;;
17570;SDS011;8903;52.220;20.978;2023-10-19T05:25:40;53.10;;;31.50;;
17570;SDS011;8903;52.220;20.978;2023-10-19T05:28:08;45.80;;;30.83;;
17570;SDS011;8903;52.220;20.978;2023-10-19T05:30:35;52.63;;;32.30;;
17570;SDS011;8903;52.220;20.978;2023-10-19T05:33:02;57.73;;;33.70;;
17570;SDS011;8903;52.220;20.978;2023-10-19T05:35:34;56.97;;;34.70;;
17570;SDS011;8903;52.220;20.978;2023-10-19T05:38:05;54.53;;;33.23;;
17570;SDS011;8903;52.220;20.978;2023-10-19T05:40:34;64.40;;;32.97;;
17570;SDS011;8903;52.220;20.978;2023-10-19T05:43:04;49.83;;;32.93;;
17570;SDS011;8903;52.220;20.978;2023-10-19T05:45:32;50.27;;;33.20;;
17570;SDS011;8903;52.220;20.978;2023-10-19T05:48:01;54.33;;;32.80;;
17570;SDS011;8903;52.220;20.978;2023-10-19T05:50:31;61.43;;;34.80;;
17570;SDS011;8903;52.220;20.978;2023-10-19T05:52:59;59.67;;;33.53;;
17570;SDS011;8903;52.220;20.978;2023-10-19T05:55:26;51.50;;;32.93;;
17570;SDS011;8903;52.220;20.978;2023-10-19T05:57:55;50.73;;;32.07;;
17570;SDS011;8903;52.220;20.978;2023-10-19T06:00:22;41.37;;;29.00;;
17570;SDS011;8903;52.220;20.978;2023-10-19T06:02:51;48.90;;;31.80;;
17570;SDS011;8903;52.220;20.978;2023-10-19T06:05:18;41.67;;;31.17;;
17570;SDS011;8903;52.220;20.978;2023-10-19T06:07:46;43.53;;;29.53;;
17570;SDS011;8903;52.220;20.978;2023-10-19T06:10:15;45.03;;;30.07;;
17570;SDS011;8903;52.220;20.978;2023-10-19T06:12:45;47.40;;;29.53;;
17570;SDS011;8903;52.220;20.978;2023-10-19T06:15:15;40.97;;;27.13;;
17570;SDS011;8903;52.220;20.978;2023-10-19T06:17:43;40.60;;;27.30;;
17570;SDS011;8903;52.220;20.978;2023-10-19T06:20:11;47.57;;;27.57;;
17570;SDS011;8903;52.220;20.978;2023-10-19T06:22:52;44.37;;;27.87;;
17570;SDS011;8903;52.220;20.978;2023-10-19T06:25:21;42.57;;;27.93;;
17570;SDS011;8903;52.220;20.978;2023-10-19T06:27:49;37.53;;;26.97;;
17570;SDS011;8903;52.220;20.978;2023-10-19T06:30:19;42.77;;;26.83;;
17570;SDS011;8903;52.220;20.978;2023-10-19T06:32:49;38.30;;;25.63;;
17570;SDS011;8903;52.220;20.978;2023-10-19T06:35:17;39.17;;;27.40;;
17570;SDS011;8903;52.220;20.978;2023-10-19T06:37:44;42.03;;;27.43;;
17570;SDS011;8903;52.220;20.978;2023-10-19T06:40:12;47.93;;;25.87;;
17570;SDS011;8903;52.220;20.978;2023-10-19T06:42:41;39.30;;;26.23;;
17570;SDS011;8903;52.220;20.978;2023-10-19T06:45:10;42.23;;;26.70;;
17570;SDS011;8903;52.220;20.978;2023-10-19T06:47:42;40.30;;;27.30;;
17570;SDS011;8903;52.220;20.978;2023-10-19T06:50:10;44.50;;;27.80;;
17570;SDS011;8903;52.220;20.978;2023-10-19T06:52:41;50.80;;;26.13;;
17570;SDS011;8903;52.220;20.978;2023-10-19T06:55:09;41.00;;;26.20;;
17570;SDS011;8903;52.220;20.978;2023-10-19T06:57:40;41.97;;;25.87;;
17570;SDS011;8903;52.220;20.978;2023-10-19T07:00:09;43.93;;;24.83;;
17570;SDS011;8903;52.220;20.978;2023-10-19T07:02:39;40.40;;;27.30;;
17570;SDS011;8903;52.220;20.978;2023-10-19T07:05:09;37.30;;;25.83;;
17570;SDS011;8903;52.220;20.978;2023-10-19T07:07:38;39.37;;;25.67;;
17570;SDS011;8903;52.220;20.978;2023-10-19T07:10:06;42.13;;;24.07;;
17570;SDS011;8903;52.220;20.978;2023-10-19T07:12:35;41.33;;;26.70;;
17570;SDS011;8903;52.220;20.978;2023-10-19T07:15:03;36.30;;;24.63;;
17570;SDS011;8903;52.220;20.978;2023-10-19T07:17:33;35.03;;;24.40;;
17570;SDS011;8903;52.220;20.978;2023-10-19T07:20:00;38.40;;;26.53;;
17570;SDS011;8903;52.220;20.978;2023-10-19T07:22:32;38.90;;;23.60;;
17570;SDS011;8903;52.220;20.978;2023-10-19T07:25:03;43.00;;;24.63;;
17570;SDS011;8903;52.220;20.978;2023-10-19T07:27:31;40.43;;;24.70;;
17570;SDS011;8903;52.220;20.978;2023-10-19T07:29:58;35.83;;;24.60;;
17570;SDS011;8903;52.220;20.978;2023-10-19T07:32:26;48.47;;;26.20;;
17570;SDS011;8903;52.220;20.978;2023-10-19T07:34:53;33.80;;;24.20;;
17570;SDS011;8903;52.220;20.978;2023-10-19T07:37:20;46.17;;;26.43;;
17570;SDS011;8903;52.220;20.978;2023-10-19T07:39:49;44.10;;;26.50;;
17570;SDS011;8903;52.220;20.978;2023-10-19T07:42:17;50.43;;;28.53;;
17570;SDS011;8903;52.220;20.978;2023-10-19T07:44:45;40.33;;;27.20;;
17570;SDS011;8903;52.220;20.978;2023-10-19T07:47:12;39.30;;;27.20;;
17570;SDS011;8903;52.220;20.978;2023-10-19T07:49:39;41.40;;;27.70;;
17570;SDS011;8903;52.220;20.978;2023-10-19T07:52:06;40.57;;;26.00;;
17570;SDS011;8903;52.220;20.978;2023-10-19T07:54:33;35.77;;;24.97;;
17570;SDS011;8903;52.220;20.978;2023-10-19T07:57:02;40.17;;;23.90;;
17570;SDS011;8903;52.220;20.978;2023-10-19T07:59:31;31.57;;;23.33;;
17570;SDS011;8903;52.220;20.978;2023-10-19T08:01:58;36.47;;;23.07;;
17570;SDS011;8903;52.220;20.978;2023-10-19T08:04:27;33.10;;;22.17;;
17570;SDS011;8903;52.220;20.978;2023-10-19T08:06:54;38.20;;;22.67;;
17570;SDS011;8903;52.220;20.978;2023-10-19T08:09:21;34.80;;;24.10;;
17570;SDS011;8903;52.220;20.978;2023-10-19T08:11:49;44.20;;;25.50;;
17570;SDS011;8903;52.220;20.978;2023-10-19T08:14:22;31.70;;;22.10;;
17570;SDS011;8903;52.220;20.978;2023-10-19T08:16:49;31.27;;;22.23;;
17570;SDS011;8903;52.220;20.978;2023-10-19T08:19:17;32.03;;;21.70;;
17570;SDS011;8903;52.220;20.978;2023-10-19T08:21:44;42.60;;;24.73;;
17570;SDS011;8903;52.220;20.978;2023-10-19T08:24:12;35.43;;;23.50;;
17570;SDS011;8903;52.220;20.978;2023-10-19T08:26:43;29.13;;;21.03;;
17570;SDS011;8903;52.220;20.978;2023-10-19T08:29:11;35.23;;;22.60;;
17570;SDS011;8903;52.220;20.978;2023-10-19T08:31:40;31.90;;;21.27;;
17570;SDS011;8903;52.220;20.978;2023-10-19T08:34:07;30.00;;;22.00;;
17570;SDS011;8903;52.220;20.978;2023-10-19T08:36:36;31.40;;;20.27;;
17570;SDS011;8903;52.220;20.978;2023-10-19T08:39:04;27.93;;;20.57;;
17570;SDS011;8903;52.220;20.978;2023-10-19T08:41:32;33.50;;;21.57;;
17570;SDS011;8903;52.220;20.978;2023-10-19T08:44:02;34.43;;;21.47;;
17570;SDS011;8903;52.220;20.978;2023-10-19T08:46:29;38.30;;;19.20;;
17570;SDS011;8903;52.220;20.978;2023-10-19T08:48:59;29.57;;;18.90;;
17570;SDS011;8903;52.220;20.978;2023-10-19T08:51:26;23.83;;;17.73;;
17570;SDS011;8903;52.220;20.978;2023-10-19T08:53:54;25.53;;;18.50;;
17570;SDS011;8903;52.220;20.978;2023-10-19T08:56:21;29.97;;;18.97;;
17570;SDS011;8903;52.220;20.978;2023-10-19T08:58:50;25.87;;;17.63;;
17570;SDS011;8903;52.220;20.978;2023-10-19T09:01:18;30.73;;;17.90;;
17570;SDS011;8903;52.220;20.978;2023-10-19T09:03:49;24.50;;;16.80;;
17570;SDS011;8903;52.220;20.978;2023-10-19T09:06:19;23.40;;;16.40;;
17570;SDS011;8903;52.220;20.978;2023-10-19T09:08:47;28.00;;;20.60;;
17570;SDS011;8903;52.220;20.978;2023-10-19T09:11:14;22.10;;;15.20;;
17570;SDS011;8903;52.220;20.978;2023-10-19T09:13:45;20.27;;;14.10;;
17570;SDS011;8903;52.220;20.978;2023-10-19T09:16:13;32.57;;;17.93;;
17570;SDS011;8903;52.220;20.978;2023-10-19T09:18:41;36.60;;;15.37;;
17570;SDS011;8903;52.220;20.978;2023-10-19T09:21:12;18.57;;;13.67;;
17570;SDS011;8903;52.220;20.978;2023-10-19T09:23:50;23.03;;;13.67;;
17570;SDS011;8903;52.220;20.978;2023-10-19T09:26:18;22.53;;;14.43;;
17570;SDS011;8903;52.220;20.978;2023-10-19T09:28:47;18.73;;;13.93;;
17570;SDS011;8903;52.220;20.978;2023-10-19T09:31:15;14.17;;;11.33;;
17570;SDS011;8903;52.220;20.978;2023-10-19T09:33:43;18.80;;;12.93;;
17570;SDS011;8903;52.220;20.978;2023-10-19T09:36:10;17.80;;;12.03;;
17570;SDS011;8903;52.220;20.978;2023-10-19T09:38:39;13.43;;;11.43;;
17570;SDS011;8903;52.220;20.978;2023-10-19T09:41:12;21.47;;;12.97;;
17570;SDS011;8903;52.220;20.978;2023-10-19T09:43:41;23.07;;;11.20;;
17570;SDS011;8903;52.220;20.978;2023-10-19T09:46:10;17.43;;;12.30;;
17570;SDS011;8903;52.220;20.978;2023-10-19T09:48:39;17.67;;;12.00;;
17570;SDS011;8903;52.220;20.978;2023-10-19T09:51:08;15.90;;;10.50;;
17570;SDS011;8903;52.220;20.978;2023-10-19T09:53:36;15.80;;;10.90;;
17570;SDS011;8903;52.220;20.978;2023-10-19T09:56:06;19.80;;;11.60;;
17570;SDS011;8903;52.220;20.978;2023-10-19T09:58:37;21.03;;;11.27;;
17570;SDS011;8903;52.220;20.978;2023-10-19T10:01:09;12.97;;;10.13;;
17570;SDS011;8903;52.220;20.978;2023-10-19T10:03:47;14.57;;;10.73;;
17570;SDS011;8903;52.220;20.978;2023-10-19T10:06:26;15.20;;;10.40;;
17570;SDS011;8903;52.220;20.978;2023-10-19T10:08:55;21.27;;;12.30;;
17570;SDS011;8903;52.220;20.978;2023-10-19T10:11:23;14.37;;;10.93;;
17570;SDS011;8903;52.220;20.978;2023-10-19T10:13:54;17.77;;;11.00;;
17570;SDS011;8903;52.220;20.978;2023-10-19T10:16:23;18.23;;;11.53;;
17570;SDS011;8903;52.220;20.978;2023-10-19T10:18:51;12.97;;;9.13;;
17570;SDS011;8903;52.220;20.978;2023-10-19T10:21:24;14.47;;;11.10;;
17570;SDS011;8903;52.220;20.978;2023-10-19T10:23:52;16.43;;;10.80;;
17570;SDS011;8903;52.220;20.978;2023-10-19T10:26:23;16.43;;;10.80;;
17570;SDS011;8903;52.220;20.978;2023-10-19T10:29:11;15.07;;;11.67;;
17570;SDS011;8903;52.220;20.978;2023-10-19T10:31:43;15.83;;;10.40;;
17570;SDS011;8903;52.220;20.978;2023-10-19T10:34:11;16.00;;;11.17;;
17570;SDS011;8903;52.220;20.978;2023-10-19T10:37:02;14.67;;;10.77;;
17570;SDS011;8903;52.220;20.978;2023-10-19T10:39:30;14.37;;;10.77;;
17570;SDS011;8903;52.220;20.978;2023-10-19T10:41:59;15.03;;;10.30;;
17570;SDS011;8903;52.220;20.978;2023-10-19T10:44:40;14.43;;;10.70;;
17570;SDS011;8903;52.220;20.978;2023-10-19T10:47:09;15.07;;;11.20;;
17570;SDS011;8903;52.220;20.978;2023-10-19T10:49:47;17.20;;;11.53;;
17570;SDS011;8903;52.220;20.978;2023-10-19T10:52:22;14.50;;;10.30;;
17570;SDS011;8903;52.220;20.978;2023-10-19T10:54:51;19.53;;;10.80;;
17570;SDS011;8903;52.220;20.978;2023-10-19T10:57:18;12.07;;;9.40;;
17570;SDS011;8903;52.220;20.978;2023-10-19T10:59:47;16.73;;;10.80;;
17570;SDS011;8903;52.220;20.978;2023-10-19T11:02:28;12.60;;;9.17;;
17570;SDS011;8903;52.220;20.978;2023-10-19T11:04:55;16.63;;;10.93;;
17570;SDS011;8903;52.220;20.978;2023-10-19T11:07:23;17.97;;;11.63;;
17570;SDS011;8903;52.220;20.978;2023-10-19T11:09:50;14.70;;;10.17;;
17570;SDS011;8903;52.220;20.978;2023-10-19T11:12:17;12.63;;;9.63;;
17570;SDS011;8903;52.220;20.978;2023-10-19T11:14:53;21.13;;;11.40;;
17570;SDS011;8903;52.220;20.978;2023-10-19T11:17:21;15.60;;;9.80;;
17570;SDS011;8903;52.220;20.978;2023-10-19T11:19:53;12.13;;;9.57;;
17570;SDS011;8903;52.220;20.978;2023-10-19T11:22:22;13.77;;;10.30;;
17570;SDS011;8903;52.220;20.978;2023-10-19T11:24:51;11.17;;;9.93;;
17570;SDS011;8903;52.220;20.978;2023-10-19T11:27:23;14.00;;;10.40;;
17570;SDS011;8903;52.220;20.978;2023-10-19T11:29:55;16.07;;;10.20;;
17570;SDS011;8903;52.220;20.978;2023-10-19T11:32:23;16.47;;;11.00;;
17570;SDS011;8903;52.220;20.978;2023-10-19T11:34:51;12.47;;;9.60;;
17570;SDS011;8903;52.220;20.978;2023-10-19T11:37:19;15.00;;;10.93;;
17570;SDS011;8903;52.220;20.978;2023-10-19T11:39:46;12.33;;;9.20;;
17570;SDS011;8903;52.220;20.978;2023-10-19T11:42:15;14.13;;;9.80;;
17570;SDS011;8903;52.220;20.978;2023-10-19T11:44:43;14.50;;;9.50;;
17570;SDS011;8903;52.220;20.978;2023-10-19T11:47:12;15.33;;;9.90;;
17570;SDS011;8903;52.220;20.978;2023-10-19T11:49:40;24.73;;;10.23;;
17570;SDS011;8903;52.220;20.978;2023-10-19T11:52:07;15.93;;;10.50;;
17570;SDS011;8903;52.220;20.978;2023-10-19T11:54:34;16.30;;;10.70;;
17570;SDS011;8903;52.220;20.978;2023-10-19T11:57:01;14.73;;;9.63;;
17570;SDS011;8903;52.220;20.978;2023-10-19T11:59:28;13.20;;;10.47;;
17570;SDS011;8903;52.220;20.978;2023-10-19T12:01:55;16.27;;;10.20;;
17570;SDS011;8903;52.220;20.978;2023-10-19T12:04:25;13.33;;;11.10;;
17570;SDS011;8903;52.220;20.978;2023-10-19T12:06:52;13.27;;;9.47;;
17570;SDS011;8903;52.220;20.978;2023-10-19T12:09:20;13.90;;;11.10;;
17570;SDS011;8903;52.220;20.978;2023-10-19T12:11:50;17.40;;;10.30;;
17570;SDS011;8903;52.220;20.978;2023-10-19T12:14:19;16.30;;;10.90;;
17570;SDS011;8903;52.220;20.978;2023-10-19T12:16:46;17.80;;;11.40;;
17570;SDS011;8903;52.220;20.978;2023-10-19T12:19:13;12.80;;;10.80;;
17570;SDS011;8903;52.220;20.978;2023-10-19T12:21:44;13.60;;;9.77;;
17570;SDS011;8903;52.220;20.978;2023-10-19T12:24:11;14.60;;;11.00;;
17570;SDS011;8903;52.220;20.978;2023-10-19T12:26:37;12.40;;;10.53;;
17570;SDS011;8903;52.220;20.978;2023-10-19T12:29:04;19.83;;;11.27;;
17570;SDS011;8903;52.220;20.978;2023-10-19T12:31:36;19.30;;;11.67;;
17570;SDS011;8903;52.220;20.978;2023-10-19T12:34:05;14.87;;;11.50;;
17570;SDS011;8903;52.220;20.978;2023-10-19T12:36:33;18.73;;;11.30;;
17570;SDS011;8903;52.220;20.978;2023-10-19T12:39:02;17.73;;;12.37;;
17570;SDS011;8903;52.220;20.978;2023-10-19T12:41:31;18.87;;;11.60;;
17570;SDS011;8903;52.220;20.978;2023-10-19T12:43:59;19.60;;;13.10;;
17570;SDS011;8903;52.220;20.978;2023-10-19T12:46:28;19.20;;;12.00;;
17570;SDS011;8903;52.220;20.978;2023-10-19T12:48:56;18.97;;;12.33;;
17570;SDS011;8903;52.220;20.978;2023-10-19T12:51:24;16.37;;;11.80;;
17570;SDS011;8903;52.220;20.978;2023-10-19T12:53:51;19.60;;;13.40;;
17570;SDS011;8903;52.220;20.978;2023-10-19T12:56:20;21.17;;;13.73;;
17570;SDS011;8903;52.220;20.978;2023-10-19T12:58:49;15.80;;;12.23;;
17570;SDS011;8903;52.220;20.978;2023-10-19T13:01:16;22.50;;;14.20;;
17570;SDS011;8903;52.220;20.978;2023-10-19T13:03:44;21.67;;;13.27;;
17570;SDS011;8903;52.220;20.978;2023-10-19T13:06:14;18.57;;;12.73;;
17570;SDS011;8903;52.220;20.978;2023-10-19T13:08:42;21.00;;;14.33;;
17570;SDS011;8903;52.220;20.978;2023-10-19T13:11:09;18.73;;;13.47;;
17570;SDS011;8903;52.220;20.978;2023-10-19T13:13:40;18.33;;;14.03;;
17570;SDS011;8903;52.220;20.978;2023-10-19T13:16:08;17.23;;;12.70;;
17570;SDS011;8903;52.220;20.978;2023-10-19T13:18:35;21.10;;;12.93;;
17570;SDS011;8903;52.220;20.978;2023-10-19T13:21:05;16.10;;;12.50;;
17570;SDS011;8903;52.220;20.978;2023-10-19T13:23:34;21.83;;;12.20;;
17570;SDS011;8903;52.220;20.978;2023-10-19T13:26:01;21.53;;;13.00;;
17570;SDS011;8903;52.220;20.978;2023-10-19T13:28:43;14.93;;;12.23;;
17570;SDS011;8903;52.220;20.978;2023-10-19T13:31:11;23.47;;;13.33;;
17570;SDS011;8903;52.220;20.978;2023-10-19T13:33:39;15.67;;;12.97;;
17570;SDS011;8903;52.220;20.978;2023-10-19T13:36:06;17.93;;;12.27;;
17570;SDS011;8903;52.220;20.978;2023-10-19T13:38:34;15.60;;;11.77;;
17570;SDS011;8903;52.220;20.978;2023-10-19T13:41:02;16.77;;;11.70;;
17570;SDS011;8903;52.220;20.978;2023-10-19T13:43:33;17.07;;;11.53;;
17570;SDS011;8903;52.220;20.978;2023-10-19T13:46:01;21.50;;;12.70;;
17570;SDS011;8903;52.220;20.978;2023-10-19T13:48:30;20.87;;;12.60;;
17570;SDS011;8903;52.220;20.978;2023-10-19T13:50:57;15.03;;;11.10;;
17570;SDS011;8903;52.220;20.978;2023-10-19T13:53:37;19.10;;;11.63;;
17570;SDS011;8903;52.220;20.978;2023-10-19T13:56:06;20.17;;;11.83;;
17570;SDS011;8903;52.220;20.978;2023-10-19T13:58:35;29.63;;;12.40;;
17570;SDS011;8903;52.220;20.978;2023-10-19T14:01:06;17.90;;;12.47;;
17570;SDS011;8903;52.220;20.978;2023-10-19T14:03:34;17.30;;;12.57;;
17570;SDS011;8903;52.220;20.978;2023-10-19T14:06:02;15.77;;;13.00;;
17570;SDS011;8903;52.220;20.978;2023-10-19T14:08:30;16.60;;;11.97;;
17570;SDS011;8903;52.220;20.978;2023-10-19T14:11:00;21.30;;;12.27;;
17570;SDS011;8903;52.220;20.978;2023-10-19T14:13:28;18.50;;;11.90;;
17570;SDS011;8903;52.220;20.978;2023-10-19T14:15:55;17.67;;;13.50;;
17570;SDS011;8903;52.220;20.978;2023-10-19T14:18:24;14.40;;;11.27;;
17570;SDS011;8903;52.220;20.978;2023-10-19T14:20:51;17.57;;;12.80;;
17570;SDS011;8903;52.220;20.978;2023-10-19T14:23:18;18.40;;;12.47;;
17570;SDS011;8903;52.220;20.978;2023-10-19T14:25:45;17.40;;;11.93;;
17570;SDS011;8903;52.220;20.978;2023-10-19T14:28:12;22.20;;;12.97;;
17570;SDS011;8903;52.220;20.978;2023-10-19T14:30:39;14.50;;;13.03;;
17570;SDS011;8903;52.220;20.978;2023-10-19T14:33:06;15.73;;;12.17;;
17570;SDS011;8903;52.220;20.978;2023-10-19T14:35:37;17.10;;;12.43;;